Time;durP1;ratioP1;P1;durP2;ratioP2;P2;SDS_P1;SDS_P2;PMS_P1;PMS_P2;Temp;Humidity;BMP_temperature;BMP_pressure;BME280_temperature;BME280_humidity;BME280_pressure;Samples;Min_cycle;Max_cycle;Signal;HPM_P1;HPM_P2
2022/01/01 00:01:17;;;;;;;4.50;4.10;;;10.20;79.00;;;;;;6285825;22;20244;-87
2022/01/01 00:03:44;;;;;;;5.97;4.50;;;10.10;78.60;;;;;;6287565;22;20207;-87
2022/01/01 00:06:11;;;;;;;5.93;3.83;;;10.10;79.50;;;;;;6288030;22;20219;-88
2022/01/01 00:08:38;;;;;;;5.28;4.15;;;10.00;79.90;;;;;;6286149;22;20220;-87
2022/01/01 00:11:05;;;;;;;6.95;3.72;;;10.10;79.60;;;;;;6261040;22;20178;-87
2022/01/01 00:13:32;;;;;;;5.25;4.25;;;10.00;79.60;;;;;;6286158;22;20165;-87
2022/01/01 00:16:01;;;;;;;4.63;3.72;;;10.00;80.80;;;;;;6286826;22;20189;-87
2022/01/01 00:18:29;;;;;;;4.03;3.53;;;10.00;80.10;;;;;;6286883;22;20231;-88
2022/01/01 00:20:56;;;;;;;4.35;3.60;;;10.00;80.10;;;;;;6287798;22;20229;-87
2022/01/01 00:23:23;;;;;;;5.43;4.22;;;9.90;81.70;;;;;;6287093;22;20248;-89
2022/01/01 00:25:51;;;;;;;4.38;3.78;;;9.90;82.10;;;;;;6286149;22;20328;-87
2022/01/01 00:28:18;;;;;;;5.72;4.47;;;9.90;82.10;;;;;;6286803;22;20224;-87
2022/01/01 00:30:45;;;;;;;4.40;3.63;;;9.80;82.50;;;;;;6286089;22;20524;-89
2022/01/01 00:33:15;;;;;;;4.47;3.58;;;9.80;82.60;;;;;;6259364;22;20164;-87
2022/01/01 00:35:42;;;;;;;5.10;3.88;;;9.80;82.80;;;;;;6285429;22;20284;-88
2022/01/01 00:38:09;;;;;;;4.88;3.75;;;9.70;83.40;;;;;;6285757;22;20189;-87
2022/01/01 00:40:37;;;;;;;5.15;4.13;;;9.60;83.60;;;;;;6286039;22;20200;-87
2022/01/01 00:43:04;;;;;;;4.57;4.07;;;9.50;84.60;;;;;;6285022;22;20244;-88
2022/01/01 00:45:31;;;;;;;4.45;3.80;;;9.60;85.00;;;;;;6285163;22;20272;-87
2022/01/01 00:47:58;;;;;;;4.80;3.88;;;9.60;84.70;;;;;;6258304;22;20172;-87
2022/01/01 00:50:27;;;;;;;5.63;4.05;;;9.60;84.30;;;;;;6284285;22;20570;-88
2022/01/01 00:52:54;;;;;;;5.00;4.07;;;9.60;84.30;;;;;;6283950;22;20601;-88
2022/01/01 00:55:21;;;;;;;4.97;3.75;;;9.60;84.80;;;;;;6283732;22;20216;-89
2022/01/01 00:57:49;;;;;;;5.93;3.85;;;9.50;85.00;;;;;;6284967;22;20179;-88
2022/01/01 01:00:16;;;;;;;9.50;8.23;;;9.40;84.90;;;;;;6283900;22;20220;-87
2022/01/01 01:02:43;;;;;;;4.63;3.83;;;9.40;85.80;;;;;;6285160;22;20267;-87
2022/01/01 01:05:10;;;;;;;7.80;5.97;;;9.40;85.60;;;;;;6257584;22;20192;-87
2022/01/01 01:07:40;;;;;;;7.88;3.65;;;9.40;85.80;;;;;;6284774;22;20207;-87
2022/01/01 01:10:08;;;;;;;5.50;3.30;;;9.40;85.80;;;;;;6283926;22;20235;-87
2022/01/01 01:12:40;;;;;;;4.10;3.30;;;9.50;85.50;;;;;;6284770;22;20251;-89
2022/01/01 01:15:16;;;;;;;6.13;3.53;;;9.50;85.60;;;;;;6259680;22;20197;-88
2022/01/01 01:17:44;;;;;;;4.30;3.42;;;9.40;85.90;;;;;;6285901;22;20203;-88
2022/01/01 01:20:12;;;;;;;3.83;3.17;;;9.40;85.60;;;;;;6285145;22;20271;-88
2022/01/01 01:22:44;;;;;;;4.78;3.97;;;9.40;85.50;;;;;;6285118;22;20224;-88
2022/01/01 01:25:12;;;;;;;3.90;3.10;;;9.50;84.70;;;;;;6283667;22;20228;-89
2022/01/01 01:27:40;;;;;;;6.72;3.40;;;9.50;84.70;;;;;;6284485;22;20200;-87
2022/01/01 01:30:10;;;;;;;3.83;3.42;;;9.40;85.10;;;;;;6283674;22;20270;-88
2022/01/01 01:32:37;;;;;;;4.38;3.38;;;9.30;85.40;;;;;;6284332;22;20515;-88
2022/01/01 01:35:05;;;;;;;7.15;5.55;;;9.20;86.40;;;;;;6283785;22;20284;-87
2022/01/01 01:37:32;;;;;;;4.22;3.50;;;9.10;87.20;;;;;;6284157;22;20165;-87
2022/01/01 01:40:02;;;;;;;4.25;3.60;;;9.10;87.30;;;;;;6283601;22;20248;-87
2022/01/01 01:42:30;;;;;;;4.95;3.30;;;9.00;87.60;;;;;;6283323;22;20168;-88
2022/01/01 01:44:58;;;;;;;9.38;7.47;;;9.00;88.60;;;;;;6282930;22;20208;-88
2022/01/01 01:47:30;;;;;;;5.53;4.40;;;9.00;88.80;;;;;;6283834;22;20169;-87
2022/01/01 01:49:58;;;;;;;4.68;3.65;;;8.90;89.00;;;;;;6283885;22;20199;-88
2022/01/01 01:52:30;;;;;;;5.20;3.20;;;8.80;90.00;;;;;;6283906;22;20275;-87
2022/01/01 01:54:58;;;;;;;3.60;3.08;;;8.80;90.10;;;;;;6283201;22;20243;-88
2022/01/01 01:57:27;;;;;;;5.57;3.10;;;8.70;90.30;;;;;;6283588;22;20176;-88
2022/01/01 01:59:54;;;;;;;3.20;2.88;;;8.70;90.20;;;;;;6256556;22;20196;-88
2022/01/01 02:02:22;;;;;;;10.00;7.20;;;8.70;90.40;;;;;;6256204;22;20202;-87
2022/01/01 02:04:49;;;;;;;3.83;3.03;;;8.70;90.40;;;;;;6283248;22;20283;-88
2022/01/01 02:07:16;;;;;;;5.60;3.20;;;8.70;90.40;;;;;;6283403;22;20228;-88
2022/01/01 02:09:43;;;;;;;5.18;3.72;;;8.60;90.40;;;;;;6282270;22;20264;-88
2022/01/01 02:12:11;;;;;;;5.10;3.10;;;8.60;90.40;;;;;;6283374;22;20173;-89
2022/01/01 02:15:07;;;;;;;6.35;3.60;;;8.70;90.40;;;;;;6281822;22;20291;-88
2022/01/01 02:17:34;;;;;;;4.43;3.50;;;8.60;90.40;;;;;;6260795;22;20199;-88
2022/01/01 02:20:12;;;;;;;6.97;3.08;;;8.60;90.40;;;;;;6281482;22;20275;-88
2022/01/01 02:22:46;;;;;;;5.13;3.30;;;8.50;90.40;;;;;;6281816;22;20195;-88
2022/01/01 02:25:14;;;;;;;3.85;3.22;;;8.40;90.60;;;;;;6281066;22;20204;-87
2022/01/01 02:27:41;;;;;;;3.90;3.25;;;8.40;90.80;;;;;;6282209;22;20177;-87
2022/01/01 02:30:11;;;;;;;5.97;4.45;;;8.30;90.80;;;;;;6281446;22;20265;-87
2022/01/01 02:32:39;;;;;;;4.40;3.45;;;8.40;90.90;;;;;;6282078;22;20168;-87
2022/01/01 02:35:11;;;;;;;5.47;3.40;;;8.30;91.00;;;;;;6281515;22;20263;-87
2022/01/01 02:37:39;;;;;;;5.00;3.20;;;8.20;91.20;;;;;;6282814;22;20161;-88
2022/01/01 02:40:08;;;;;;;4.75;3.35;;;8.20;91.40;;;;;;6281461;22;20192;-90
2022/01/01 02:42:36;;;;;;;4.95;3.00;;;8.20;91.50;;;;;;6282655;22;20247;-88
2022/01/01 02:45:08;;;;;;;3.95;2.92;;;8.20;91.60;;;;;;6281709;22;20693;-88
2022/01/01 02:47:35;;;;;;;4.47;3.33;;;8.10;91.70;;;;;;6283065;22;20161;-88
2022/01/01 02:50:02;;;;;;;4.60;4.05;;;8.10;91.80;;;;;;6280967;22;20207;-87
2022/01/01 02:52:31;;;;;;;3.83;3.40;;;8.10;91.80;;;;;;6281554;22;20219;-88
2022/01/01 02:54:58;;;;;;;4.80;3.40;;;8.10;91.80;;;;;;6280139;22;20715;-89
2022/01/01 02:57:25;;;;;;;5.07;3.10;;;8.10;91.80;;;;;;6281824;22;20263;-87
2022/01/01 02:59:52;;;;;;;3.58;3.17;;;8.10;91.70;;;;;;6254682;22;20197;-88
2022/01/01 03:02:20;;;;;;;3.90;3.15;;;8.20;91.40;;;;;;6281631;22;20229;-89
2022/01/01 03:04:47;;;;;;;4.25;2.92;;;8.20;91.40;;;;;;6280054;22;20207;-88
2022/01/01 03:07:14;;;;;;;4.93;3.47;;;8.20;91.60;;;;;;6281362;22;20168;-88
2022/01/01 03:09:42;;;;;;;3.67;2.97;;;8.10;91.70;;;;;;6280398;22;20284;-87
2022/01/01 03:12:11;;;;;;;4.53;3.40;;;8.10;91.70;;;;;;6281651;22;20171;-87
2022/01/01 03:14:39;;;;;;;4.55;3.40;;;8.10;91.90;;;;;;6281174;22;20201;-87
2022/01/01 03:17:07;;;;;;;11.35;9.13;;;8.10;91.90;;;;;;6280643;22;20220;-87
2022/01/01 03:19:34;;;;;;;4.35;3.30;;;8.10;91.80;;;;;;6279941;22;20199;-88
2022/01/01 03:22:02;;;;;;;4.22;3.50;;;8.10;91.80;;;;;;6280665;22;20220;-89
2022/01/01 03:24:29;;;;;;;6.95;4.88;;;8.10;92.20;;;;;;6251394;22;20656;-88
2022/01/01 03:26:58;;;;;;;3.95;3.00;;;8.10;91.90;;;;;;6279072;22;20178;-87
2022/01/01 03:29:28;;;;;;;4.72;3.22;;;8.20;91.70;;;;;;6277470;22;20200;-89
2022/01/01 03:31:55;;;;;;;5.03;3.83;;;8.10;91.60;;;;;;6251753;22;20177;-89
2022/01/01 03:34:22;;;;;;;4.18;3.10;;;8.10;91.60;;;;;;6277927;22;20212;-88
2022/01/01 03:36:49;;;;;;;3.22;2.78;;;8.00;91.80;;;;;;6278226;22;20251;-88
2022/01/01 03:39:16;;;;;;;4.18;2.95;;;7.90;91.90;;;;;;6251337;22;20203;-89
2022/01/01 03:41:43;;;;;;;34.80;26.02;;;7.90;92.30;;;;;;6279481;22;20175;-90
2022/01/01 03:44:12;;;;;;;9.77;6.38;;;7.90;92.90;;;;;;6252034;22;20204;-88
2022/01/01 03:46:39;;;;;;;3.58;3.20;;;8.00;93.80;;;;;;6278348;22;20251;-88
2022/01/01 03:49:06;;;;;;;5.18;3.70;;;8.00;93.00;;;;;;6277773;22;20206;-87
2022/01/01 03:51:33;;;;;;;5.45;2.95;;;8.00;92.40;;;;;;6278515;22;20539;-88
2022/01/01 03:54:00;;;;;;;3.47;2.92;;;8.00;92.30;;;;;;6278179;22;20315;-89
2022/01/01 03:56:27;;;;;;;7.57;5.47;;;7.90;92.30;;;;;;6278845;22;20252;-90
2022/01/01 03:58:55;;;;;;;10.43;6.03;;;7.90;92.30;;;;;;6280705;22;20217;-92
2022/01/01 04:01:23;;;;;;;8.73;5.13;;;7.80;92.40;;;;;;6285579;22;20204;-87
2022/01/01 04:03:50;;;;;;;9.55;5.50;;;7.80;92.60;;;;;;6281915;22;20244;-87
2022/01/01 04:06:18;;;;;;;6.75;4.35;;;7.70;92.80;;;;;;6282000;22;20169;-86
2022/01/01 04:08:45;;;;;;;9.43;4.65;;;7.70;93.00;;;;;;6281035;22;20642;-88
2022/01/01 04:11:12;;;;;;;5.35;4.03;;;7.80;93.00;;;;;;6256236;22;20228;-87
2022/01/01 04:13:39;;;;;;;5.05;3.63;;;7.80;92.90;;;;;;6281038;22;20563;-87
2022/01/01 04:16:07;;;;;;;4.32;3.50;;;7.70;93.00;;;;;;6282004;22;20247;-86
2022/01/01 04:18:38;;;;;;;5.18;3.90;;;7.70;93.20;;;;;;6281593;22;20169;-87
2022/01/01 04:21:07;;;;;;;5.55;3.58;;;7.60;93.60;;;;;;6282012;22;20169;-87
2022/01/01 04:23:35;;;;;;;3.88;3.42;;;7.50;93.50;;;;;;6281646;22;20243;-86
2022/01/01 04:26:02;;;;;;;5.03;3.20;;;7.40;93.90;;;;;;6283465;22;20164;-87
2022/01/01 04:28:29;;;;;;;4.18;3.28;;;7.40;94.30;;;;;;6282558;22;20169;-87
2022/01/01 04:30:56;;;;;;;3.85;3.20;;;7.40;94.30;;;;;;6281250;22;20204;-86
2022/01/01 04:33:23;;;;;;;4.40;3.45;;;7.40;94.10;;;;;;6281845;22;20243;-86
2022/01/01 04:35:51;;;;;;;3.45;2.95;;;7.50;94.00;;;;;;6281110;22;20212;-86
2022/01/01 04:38:35;;;;;;;5.93;3.35;;;7.40;94.30;;;;;;6282053;22;20723;-86
2022/01/01 04:41:02;;;;;;;3.85;2.95;;;7.40;94.10;;;;;;6282757;22;20200;-87
2022/01/01 04:43:29;;;;;;;4.30;3.20;;;7.40;94.20;;;;;;6281948;22;20180;-86
2022/01/01 04:45:57;;;;;;;3.92;3.20;;;7.30;94.20;;;;;;6282300;22;20200;-86
2022/01/01 04:48:24;;;;;;;4.47;3.30;;;7.30;94.20;;;;;;6283050;22;20175;-86
2022/01/01 04:50:52;;;;;;;4.10;3.30;;;7.20;94.40;;;;;;6284105;22;20720;-86
2022/01/01 04:53:19;;;;;;;4.60;3.20;;;7.10;94.50;;;;;;6284850;22;20251;-87
2022/01/01 04:55:47;;;;;;;7.55;5.00;;;7.10;94.80;;;;;;6284833;22;20223;-86
2022/01/01 04:58:15;;;;;;;17.00;9.18;;;7.20;94.70;;;;;;6284683;22;20215;-86
2022/01/01 05:00:42;;;;;;;10.93;6.75;;;7.20;94.80;;;;;;6283956;22;20250;-86
2022/01/01 05:03:09;;;;;;;11.20;6.47;;;7.20;94.80;;;;;;6283832;22;20169;-86
2022/01/01 05:05:36;;;;;;;12.20;7.07;;;7.20;94.80;;;;;;6283148;22;20307;-87
2022/01/01 05:08:05;;;;;;;8.48;6.18;;;7.10;94.90;;;;;;6283302;22;20192;-88
2022/01/01 05:10:32;;;;;;;10.23;7.00;;;7.10;95.00;;;;;;6282484;22;20640;-86
2022/01/01 05:12:59;;;;;;;8.77;5.70;;;7.10;95.00;;;;;;6283691;22;20199;-86
2022/01/01 05:15:26;;;;;;;10.13;7.03;;;7.00;95.10;;;;;;6282472;22;20216;-87
2022/01/01 05:17:53;;;;;;;12.18;7.93;;;7.00;95.30;;;;;;6282686;22;20196;-89
2022/01/01 05:20:20;;;;;;;12.27;9.20;;;7.00;95.40;;;;;;6281665;22;20255;-86
2022/01/01 05:22:47;;;;;;;15.10;7.95;;;6.90;95.50;;;;;;6282771;22;20248;-89
2022/01/01 05:25:16;;;;;;;11.02;7.15;;;6.90;95.50;;;;;;6281518;22;20211;-86
2022/01/01 05:27:43;;;;;;;8.50;6.20;;;6.90;95.50;;;;;;6282230;22;20169;-87
2022/01/01 05:30:11;;;;;;;6.93;4.80;;;6.90;95.50;;;;;;6281580;22;20200;-87
2022/01/01 05:32:38;;;;;;;7.00;4.83;;;6.90;95.50;;;;;;6281681;22;20555;-86
2022/01/01 05:35:07;;;;;;;8.73;6.07;;;6.90;95.50;;;;;;6281057;22;20263;-87
2022/01/01 05:37:34;;;;;;;12.53;6.60;;;6.90;95.50;;;;;;6281740;22;20247;-87
2022/01/01 05:40:01;;;;;;;11.03;6.43;;;6.80;95.40;;;;;;6280147;22;20687;-87
2022/01/01 05:42:29;;;;;;;9.70;5.97;;;6.80;95.40;;;;;;6281167;22;20201;-87
2022/01/01 05:44:56;;;;;;;9.90;6.30;;;6.80;95.40;;;;;;6278680;22;20299;-87
2022/01/01 05:47:23;;;;;;;10.27;5.73;;;6.70;95.40;;;;;;6279480;22;20225;-87
2022/01/01 05:49:50;;;;;;;7.83;5.43;;;6.70;95.40;;;;;;6279554;22;20276;-86
2022/01/01 05:52:17;;;;;;;6.00;4.87;;;6.70;95.40;;;;;;6279302;22;20251;-89
2022/01/01 05:54:44;;;;;;;11.57;7.57;;;6.70;95.40;;;;;;6278354;22;20224;-86
2022/01/01 05:57:11;;;;;;;5.17;4.40;;;6.60;95.40;;;;;;6280141;22;20216;-87
2022/01/01 05:59:41;;;;;;;8.57;5.60;;;6.60;95.90;;;;;;6279543;22;20218;-86
2022/01/01 06:02:08;;;;;;;7.10;5.20;;;6.50;95.90;;;;;;6281694;22;20627;-87
2022/01/01 06:04:36;;;;;;;7.03;5.60;;;6.60;96.00;;;;;;6279150;22;20201;-87
2022/01/01 06:07:02;;;;;;;9.67;6.53;;;6.50;96.00;;;;;;6280204;22;20173;-86
2022/01/01 06:09:29;;;;;;;5.50;3.07;;;6.50;95.90;;;;;;6279386;22;20200;-88
2022/01/01 06:11:56;;;;;;;6.20;4.90;;;6.40;96.30;;;;;;6280508;22;20638;-86
2022/01/01 06:14:23;;;;;;;5.90;4.53;;;6.30;96.40;;;;;;6279573;22;20219;-86
2022/01/01 06:16:52;;;;;;;11.50;6.07;;;6.30;96.40;;;;;;6280217;22;20188;-86
2022/01/01 06:19:19;;;;;;;7.10;3.40;;;6.30;96.30;;;;;;6280251;22;20275;-86
2022/01/01 06:21:46;;;;;;;7.67;5.23;;;6.20;96.30;;;;;;6282517;22;20264;-88
2022/01/01 06:24:13;;;;;;;8.33;5.50;;;6.20;97.00;;;;;;6288921;22;20251;-87
2022/01/01 06:26:40;;;;;;;3.70;2.93;;;6.20;97.00;;;;;;6279734;22;20169;-88
2022/01/01 06:29:07;;;;;;;6.50;4.97;;;6.10;97.00;;;;;;6276848;22;20200;-89
2022/01/01 06:31:34;;;;;;;6.60;4.40;;;6.10;97.50;;;;;;6277714;22;20175;-87
2022/01/01 06:34:03;;;;;;;5.77;4.27;;;6.20;97.20;;;;;;6276562;22;20203;-88
2022/01/01 06:36:30;;;;;;;5.33;4.13;;;6.20;97.00;;;;;;6276736;22;20168;-87
2022/01/01 06:38:57;;;;;;;7.63;4.70;;;6.20;96.90;;;;;;6276938;22;20218;-88
2022/01/01 06:41:25;;;;;;;5.93;4.87;;;6.20;96.80;;;;;;6277276;22;20171;-88
2022/01/01 06:43:53;;;;;;;7.73;5.30;;;6.20;96.70;;;;;;6275723;22;20578;-87
2022/01/01 06:46:20;;;;;;;5.03;2.77;;;6.10;96.70;;;;;;6276242;22;20188;-87
2022/01/01 06:48:47;;;;;;;9.30;5.63;;;6.00;96.80;;;;;;6275313;22;20554;-86
2022/01/01 06:51:15;;;;;;;5.90;3.83;;;6.00;97.40;;;;;;6275948;22;20175;-88
2022/01/01 06:53:42;;;;;;;6.10;4.33;;;6.00;97.50;;;;;;6275555;22;20169;-87
2022/01/01 06:56:09;;;;;;;5.27;3.90;;;6.00;97.30;;;;;;6276857;22;20255;-86
2022/01/01 06:58:37;;;;;;;5.73;4.10;;;6.00;97.30;;;;;;6274782;22;20173;-88
2022/01/01 07:01:05;;;;;;;6.50;4.50;;;6.00;97.30;;;;;;6275461;22;20168;-88
2022/01/01 07:03:32;;;;;;;7.53;4.20;;;6.10;97.20;;;;;;6274968;22;20169;-90
2022/01/01 07:05:59;;;;;;;7.07;4.10;;;6.10;97.10;;;;;;6274756;22;20279;-87
2022/01/01 07:08:27;;;;;;;5.77;3.97;;;6.10;96.80;;;;;;6274978;22;20605;-87
2022/01/01 07:10:54;;;;;;;8.50;5.80;;;6.00;96.80;;;;;;6274255;22;20203;-88
2022/01/01 07:13:21;;;;;;;6.20;4.37;;;6.00;97.00;;;;;;6274681;22;20175;-88
2022/01/01 07:15:48;;;;;;;4.57;3.33;;;5.90;97.30;;;;;;6273611;22;20267;-87
2022/01/01 07:18:15;;;;;;;4.93;3.47;;;5.90;97.40;;;;;;6275268;22;20243;-87
2022/01/01 07:20:42;;;;;;;4.20;2.90;;;5.80;97.60;;;;;;6274675;22;20513;-88
2022/01/01 07:23:11;;;;;;;5.20;3.50;;;5.80;97.70;;;;;;6275174;22;20250;-88
2022/01/01 07:25:39;;;;;;;5.83;3.97;;;5.80;97.60;;;;;;6274015;22;20215;-88
2022/01/01 07:28:07;;;;;;;6.87;4.33;;;5.80;98.00;;;;;;6275700;22;20247;-88
2022/01/01 07:30:34;;;;;;;5.20;3.77;;;5.90;97.90;;;;;;6273940;22;20783;-87
2022/01/01 07:33:01;;;;;;;4.17;3.30;;;6.00;97.60;;;;;;6275167;22;20211;-87
2022/01/01 07:35:28;;;;;;;4.83;3.67;;;6.10;97.40;;;;;;6274943;22;20220;-85
2022/01/01 07:37:55;;;;;;;8.87;3.63;;;6.10;97.30;;;;;;6279716;22;20629;-87
2022/01/01 07:40:23;;;;;;;5.00;3.40;;;6.20;97.10;;;;;;6278524;22;20503;-86
2022/01/01 07:42:52;;;;;;;6.23;3.90;;;6.20;96.90;;;;;;6279387;22;20220;-86
2022/01/01 07:45:19;;;;;;;4.50;3.53;;;6.20;96.70;;;;;;6277657;22;20650;-86
2022/01/01 07:47:46;;;;;;;6.73;3.70;;;6.30;96.70;;;;;;6279936;22;20247;-86
2022/01/01 07:50:13;;;;;;;8.50;4.07;;;6.20;96.40;;;;;;6277010;22;20196;-87
2022/01/01 07:52:42;;;;;;;3.70;3.27;;;6.20;96.60;;;;;;6277399;22;20175;-86
2022/01/01 07:55:10;;;;;;;4.43;2.70;;;6.30;96.60;;;;;;6277852;22;20216;-89
2022/01/01 07:57:37;;;;;;;5.63;4.33;;;6.20;96.70;;;;;;6275234;22;20168;-89
2022/01/01 08:00:08;;;;;;;4.57;3.50;;;6.30;96.80;;;;;;6275305;22;20196;-89
2022/01/01 08:02:39;;;;;;;5.30;3.80;;;6.40;96.70;;;;;;6276667;22;20157;-88
2022/01/01 08:05:07;;;;;;;5.00;3.80;;;6.50;96.30;;;;;;6274711;22;20200;-89
2022/01/01 08:07:34;;;;;;;4.03;3.63;;;6.60;96.00;;;;;;6276036;22;20526;-90
2022/01/01 08:10:01;;;;;;;5.57;4.53;;;6.60;95.40;;;;;;6276574;22;20200;-87
2022/01/01 08:12:28;;;;;;;5.80;4.13;;;6.60;96.30;;;;;;6277887;22;20200;-86
2022/01/01 08:14:56;;;;;;;5.97;4.63;;;6.70;96.60;;;;;;6279981;22;20230;-86
2022/01/01 08:17:25;;;;;;;6.60;5.07;;;6.80;96.30;;;;;;6281175;22;20200;-86
2022/01/01 08:19:53;;;;;;;6.77;5.13;;;7.00;95.60;;;;;;6282530;22;20196;-86
2022/01/01 08:22:19;;;;;;;5.53;4.22;;;7.20;95.80;;;;;;6283670;22;20171;-86
2022/01/01 08:24:47;;;;;;;7.28;4.93;;;7.20;95.50;;;;;;6284374;22;20275;-86
2022/01/01 08:27:14;;;;;;;5.57;4.53;;;7.30;95.60;;;;;;6285480;22;20172;-86
2022/01/01 08:29:41;;;;;;;5.45;4.38;;;7.70;95.60;;;;;;6283426;22;20196;-86
2022/01/01 08:32:08;;;;;;;5.85;4.25;;;7.80;94.70;;;;;;6284359;22;20567;-86
2022/01/01 08:34:37;;;;;;;4.95;3.40;;;8.10;94.40;;;;;;6282786;22;20196;-86
2022/01/01 08:37:04;;;;;;;3.95;3.28;;;8.30;93.70;;;;;;6284216;22;20196;-86
2022/01/01 08:39:32;;;;;;;4.75;3.38;;;8.50;93.10;;;;;;6284099;22;20272;-86
2022/01/01 08:41:59;;;;;;;5.00;4.00;;;8.70;92.40;;;;;;6287400;22;20219;-86
2022/01/01 08:44:26;;;;;;;5.28;3.53;;;9.00;91.40;;;;;;6287857;22;20207;-88
2022/01/01 08:46:53;;;;;;;4.32;3.03;;;9.40;90.50;;;;;;6284384;22;20193;-88
2022/01/01 08:49:20;;;;;;;5.28;3.70;;;9.80;88.70;;;;;;6280322;22;20464;-89
2022/01/01 08:51:48;;;;;;;5.22;3.88;;;10.30;84.20;;;;;;6281560;22;20228;-89
2022/01/01 08:54:16;;;;;;;3.95;3.40;;;10.90;80.10;;;;;;6283927;22;20192;-88
2022/01/01 08:56:49;;;;;;;4.47;3.60;;;11.20;78.80;;;;;;6285126;22;20185;-88
2022/01/01 08:59:16;;;;;;;4.43;3.85;;;11.90;75.10;;;;;;6287095;22;20227;-88
2022/01/01 09:01:43;;;;;;;4.25;3.22;;;12.80;65.30;;;;;;6279407;22;20454;-89
2022/01/01 09:04:10;;;;;;;4.25;3.30;;;13.40;59.50;;;;;;6281139;22;20279;-88
2022/01/01 09:06:37;;;;;;;5.00;3.63;;;14.10;50.50;;;;;;6282502;22;20224;-89
2022/01/01 09:09:05;;;;;;;3.50;3.03;;;14.70;49.00;;;;;;6280843;22;20647;-88
2022/01/01 09:11:32;;;;;;;7.07;3.22;;;15.30;44.20;;;;;;6280138;22;20183;-86
2022/01/01 09:13:59;;;;;;;4.40;3.00;;;15.60;39.90;;;;;;6280609;22;20546;-86
2022/01/01 09:16:29;;;;;;;4.53;3.60;;;16.00;38.00;;;;;;6283378;22;20224;-86
2022/01/01 09:18:57;;;;;;;4.22;3.00;;;16.50;35.90;;;;;;6282745;22;20199;-86
2022/01/01 09:21:26;;;;;;;4.13;3.42;;;17.10;32.80;;;;;;6278520;22;20168;-88
2022/01/01 09:23:54;;;;;;;3.38;3.08;;;17.80;30.20;;;;;;6279458;22;20247;-86
2022/01/01 09:26:22;;;;;;;3.72;3.42;;;18.30;30.60;;;;;;6282772;22;20196;-87
2022/01/01 09:28:49;;;;;;;3.50;3.20;;;18.40;30.70;;;;;;6282777;22;20195;-84
2022/01/01 09:31:16;;;;;;;3.83;3.50;;;18.10;30.50;;;;;;6283522;22;20203;-87
2022/01/01 09:33:43;;;;;;;3.70;3.40;;;19.20;28.20;;;;;;6284193;22;20478;-83
2022/01/01 09:36:14;;;;;;;3.78;3.40;;;19.80;26.50;;;;;;6285343;22;20256;-84
2022/01/01 09:38:41;;;;;;;3.95;3.45;;;20.80;22.10;;;;;;6281863;22;20168;-83
2022/01/01 09:41:09;;;;;;;3.38;2.88;;;21.60;20.90;;;;;;6283736;22;20624;-84
2022/01/01 09:43:38;;;;;;;3.50;3.20;;;21.50;20.20;;;;;;6283759;22;20183;-84
2022/01/01 09:46:05;;;;;;;5.28;3.83;;;21.00;22.20;;;;;;6281957;22;20271;-86
2022/01/01 09:48:33;;;;;;;4.05;3.38;;;21.00;24.30;;;;;;6281316;22;20179;-83
2022/01/01 09:51:03;;;;;;;4.60;3.42;;;20.80;22.60;;;;;;6280623;22;20212;-83
2022/01/01 09:53:32;;;;;;;4.20;3.35;;;20.10;23.30;;;;;;6279331;22;20167;-83
2022/01/01 09:56:00;;;;;;;4.13;3.72;;;18.90;25.60;;;;;;6280862;22;20204;-85
2022/01/01 09:58:29;;;;;;;4.78;3.60;;;18.30;30.30;;;;;;6281661;22;20189;-86
2022/01/01 10:00:58;;;;;;;3.97;3.50;;;17.90;28.40;;;;;;6281219;22;20200;-86
2022/01/01 10:03:29;;;;;;;3.30;3.00;;;17.50;30.00;;;;;;6283847;22;20216;-85
2022/01/01 10:06:01;;;;;;;3.60;2.85;;;16.90;29.50;;;;;;6284715;22;20280;-85
2022/01/01 10:08:29;;;;;;;4.22;3.70;;;16.40;29.10;;;;;;6283956;22;20172;-85
2022/01/01 10:10:56;;;;;;;3.42;3.10;;;15.60;31.10;;;;;;6284652;22;20208;-88
2022/01/01 10:13:27;;;;;;;3.40;3.10;;;15.00;33.50;;;;;;6284668;22;20168;-87
2022/01/01 10:15:58;;;;;;;4.47;3.55;;;14.60;35.80;;;;;;6281645;22;20215;-88
2022/01/01 10:18:29;;;;;;;3.72;3.00;;;14.50;36.00;;;;;;6283720;22;20188;-88
2022/01/01 10:21:01;;;;;;;3.88;3.15;;;14.20;35.60;;;;;;6283409;22;20197;-88
2022/01/01 10:23:30;;;;;;;3.75;2.97;;;14.30;35.40;;;;;;6284040;22;20176;-87
2022/01/01 10:29:04;;;;;;;3.35;3.03;;;14.40;36.50;;;;;;6283860;22;20198;-87
2022/01/01 10:31:35;;;;;;;3.55;2.80;;;14.40;37.70;;;;;;6284805;22;20676;-88
2022/01/01 10:34:02;;;;;;;3.95;3.05;;;14.30;38.80;;;;;;6283548;22;20267;-88
2022/01/01 10:36:31;;;;;;;3.67;3.20;;;14.20;39.40;;;;;;6284298;22;20251;-89
2022/01/01 10:39:09;;;;;;;4.20;3.20;;;14.40;40.40;;;;;;6283299;22;20193;-87
2022/01/01 10:41:45;;;;;;;3.20;2.90;;;14.70;38.70;;;;;;6283255;22;20152;-87
2022/01/01 10:44:13;;;;;;;3.13;2.70;;;15.00;36.30;;;;;;6282820;22;20632;-86
2022/01/01 10:46:42;;;;;;;3.42;3.00;;;15.40;34.80;;;;;;6283983;22;20189;-88
2022/01/01 10:49:50;;;;;;;3.40;3.10;;;15.60;34.00;;;;;;6283968;22;20263;-85
2022/01/01 10:52:19;;;;;;;3.00;2.80;;;16.50;31.60;;;;;;6283803;22;20161;-86
2022/01/01 10:54:52;;;;;;;3.50;2.88;;;17.30;29.80;;;;;;6283556;22;20247;-85
2022/01/01 10:57:38;;;;;;;3.83;2.47;;;17.60;30.00;;;;;;6284023;22;20177;-85
2022/01/01 11:00:09;;;;;;;3.13;2.83;;;18.00;28.70;;;;;;6282279;22;20271;-85
2022/01/01 11:02:40;;;;;;;3.28;2.97;;;17.90;30.30;;;;;;6282857;22;20213;-86
2022/01/01 11:05:08;;;;;;;2.88;2.60;;;17.70;28.20;;;;;;6282173;22;20271;-86
2022/01/01 11:07:36;;;;;;;3.80;2.88;;;17.30;29.80;;;;;;6287964;22;20223;-86
2022/01/01 11:10:05;;;;;;;4.32;2.92;;;17.50;30.00;;;;;;6283008;22;20243;-85
2022/01/01 11:12:32;;;;;;;3.20;2.78;;;18.00;27.70;;;;;;6284353;22;20192;-85
2022/01/01 11:15:01;;;;;;;4.28;2.85;;;17.60;30.00;;;;;;6282936;22;20227;-87
2022/01/01 11:17:28;;;;;;;2.95;2.60;;;16.90;29.50;;;;;;6283237;22;20204;-85
2022/01/01 11:19:59;;;;;;;4.68;2.92;;;16.30;31.20;;;;;;6284800;22;20210;-86
2022/01/01 11:22:27;;;;;;;4.55;3.13;;;15.60;33.50;;;;;;6283166;22;20184;-89
2022/01/01 11:24:56;;;;;;;3.63;2.72;;;15.30;35.10;;;;;;6280864;22;20219;-87
2022/01/01 11:27:25;;;;;;;2.85;2.53;;;14.80;35.80;;;;;;6283880;22;20267;-88
2022/01/01 11:29:53;;;;;;;3.28;2.85;;;14.60;37.60;;;;;;6283175;22;20223;-87
2022/01/01 11:32:23;;;;;;;3.22;2.92;;;14.40;38.80;;;;;;6280912;22;20200;-88
2022/01/01 11:34:53;;;;;;;5.32;4.03;;;14.40;39.90;;;;;;6277688;22;20248;-91
2022/01/01 11:37:23;;;;;;;3.55;3.10;;;14.20;40.80;;;;;;6275701;22;20196;-92
2022/01/01 11:39:56;;;;;;;2.83;2.55;;;14.10;41.30;;;;;;6275329;22;20188;-90
2022/01/01 11:42:24;;;;;;;3.65;2.63;;;14.00;41.00;;;;;;6280305;22;20164;-90
2022/01/01 11:44:53;;;;;;;2.83;2.45;;;13.80;41.80;;;;;;6279054;22;20197;-89
2022/01/01 11:47:22;;;;;;;3.22;2.50;;;13.70;45.20;;;;;;6283021;22;20666;-89
2022/01/01 11:49:50;;;;;;;3.05;2.67;;;13.60;45.40;;;;;;6281933;22;20197;-89
2022/01/01 11:52:40;;;;;;;3.53;2.55;;;13.50;44.80;;;;;;6282002;22;20176;-90
2022/01/01 11:55:11;;;;;;;4.35;2.60;;;13.50;45.30;;;;;;6282798;22;20216;-90
2022/01/01 11:57:39;;;;;;;3.38;2.80;;;13.50;44.90;;;;;;6283129;22;20243;-89
2022/01/01 12:00:13;;;;;;;2.80;2.40;;;13.50;45.90;;;;;;6284880;22;20248;-89
2022/01/01 12:02:48;;;;;;;5.78;2.95;;;13.40;45.80;;;;;;6285334;22;20544;-89
2022/01/01 12:05:21;;;;;;;2.83;2.42;;;13.40;46.40;;;;;;6256992;22;20196;-88
2022/01/01 12:07:55;;;;;;;2.65;2.42;;;13.30;48.10;;;;;;6285702;22;20188;-88
2022/01/01 12:10:30;;;;;;;2.58;2.38;;;13.40;47.80;;;;;;6284058;22;20196;-89
2022/01/01 12:12:59;;;;;;;2.90;2.42;;;13.40;46.70;;;;;;6285848;22;20186;-89
2022/01/01 12:15:38;;;;;;;3.50;2.53;;;13.40;46.90;;;;;;6284035;22;20283;-89
2022/01/01 12:18:07;;;;;;;3.67;2.65;;;13.30;48.00;;;;;;6284622;22;20235;-88
2022/01/01 12:20:37;;;;;;;2.53;2.33;;;13.30;48.10;;;;;;6284418;22;20196;-89
2022/01/01 12:23:08;;;;;;;2.85;2.30;;;13.40;49.90;;;;;;6285154;22;20225;-88
2022/01/01 12:25:37;;;;;;;3.53;2.60;;;13.40;48.50;;;;;;6284432;22;20243;-88
2022/01/01 12:28:07;;;;;;;4.50;2.45;;;13.30;48.20;;;;;;6284965;22;20192;-89
2022/01/01 12:30:40;;;;;;;3.28;2.53;;;13.30;49.80;;;;;;6284729;22;20660;-87
2022/01/01 12:33:09;;;;;;;2.97;2.50;;;13.40;49.90;;;;;;6286430;22;20176;-88
2022/01/01 12:35:42;;;;;;;4.68;2.80;;;13.40;49.90;;;;;;6284439;22;20203;-88
2022/01/01 12:38:12;;;;;;;13.10;9.77;;;13.80;50.20;;;;;;6286372;22;20191;-88
2022/01/01 12:40:56;;;;;;;3.78;2.55;;;14.00;50.50;;;;;;6285575;22;20263;-89
2022/01/01 12:43:24;;;;;;;10.43;8.07;;;14.00;49.60;;;;;;6285155;22;20160;-89
2022/01/01 12:45:51;;;;;;;4.80;3.95;;;14.10;48.80;;;;;;6284250;22;20279;-88
2022/01/01 12:48:23;;;;;;;18.77;14.60;;;14.00;46.80;;;;;;6285537;22;20624;-88
2022/01/01 12:50:57;;;;;;;4.05;2.38;;;14.00;50.50;;;;;;6284672;22;20243;-88
2022/01/01 12:53:26;;;;;;;2.88;2.33;;;14.00;46.40;;;;;;6285360;22;20157;-88
2022/01/01 12:56:02;;;;;;;5.10;3.83;;;13.70;47.10;;;;;;6284887;22;20275;-89
2022/01/01 12:58:33;;;;;;;7.32;5.50;;;13.70;48.80;;;;;;6286302;22;20214;-89
2022/01/01 13:01:08;;;;;;;7.43;6.20;;;13.90;50.40;;;;;;6289537;22;20203;-88
2022/01/01 13:03:36;;;;;;;3.78;2.50;;;14.00;48.90;;;;;;6290577;22;20171;-88